createdAt,value
2019-05-06T00:00:04.718Z,3.82
2019-05-06T00:10:08.057Z,3.35
2019-05-06T00:20:05.404Z,3.12
2019-05-06T00:30:04.458Z,2.92
2019-05-06T00:40:04.113Z,3.04
2019-05-06T00:50:08.373Z,3.08
2019-05-06T01:00:04.136Z,3.00
2019-05-06T01:10:08.739Z,2.95
2019-05-06T01:20:08.213Z,2.94
2019-05-06T01:30:04.363Z,2.86
2019-05-06T01:40:04.041Z,2.87
2019-05-06T01:50:08.145Z,2.89
2019-05-06T02:00:04.794Z,3.09
2019-05-06T02:10:08.743Z,3.30
2019-05-06T02:20:04.042Z,3.34
2019-05-06T02:30:05.362Z,3.26
2019-05-06T02:40:04.039Z,3.14
2019-05-06T02:50:07.843Z,3.18
2019-05-06T03:00:09.532Z,3.20
2019-05-06T03:10:08.397Z,3.13
2019-05-06T03:20:12.571Z,3.15
2019-05-06T03:30:07.879Z,3.13
2019-05-06T03:40:09.805Z,3.13
2019-05-06T03:50:07.211Z,3.13
2019-05-06T04:00:12.928Z,3.14
2019-05-06T04:10:08.536Z,3.17
2019-05-06T04:20:03.941Z,3.13
2019-05-06T04:30:05.333Z,3.20
2019-05-06T04:40:05.906Z,3.24
2019-05-06T04:50:09.544Z,3.30
2019-05-06T05:00:04.014Z,3.40
2019-05-06T05:10:08.414Z,3.61
2019-05-06T05:20:07.465Z,3.85
2019-05-06T05:30:12.647Z,4.03
2019-05-06T05:40:03.133Z,4.21
2019-05-06T05:50:05.840Z,4.67
2019-05-06T06:00:04.038Z,4.92
2019-05-06T06:10:08.402Z,4.80
2019-05-06T06:20:12.164Z,4.76
2019-05-06T06:30:07.726Z,5.50
2019-05-06T06:40:02.699Z,5.83
2019-05-06T06:50:07.730Z,7.32
2019-05-06T07:00:12.442Z,6.73
2019-05-06T07:10:07.253Z,7.78
2019-05-06T07:20:07.790Z,7.44
2019-05-06T07:30:03.075Z,6.94
2019-05-06T07:40:11.949Z,7.18
2019-05-06T07:50:07.925Z,8.15
2019-05-06T08:00:07.490Z,9.30
2019-05-06T08:10:07.713Z,8.32
2019-05-06T08:20:02.870Z,8.69
2019-05-06T08:30:09.012Z,7.76
2019-05-06T08:40:11.945Z,8.81
2019-05-06T08:50:05.803Z,11.43
2019-05-06T09:00:06.312Z,8.90
2019-05-06T09:10:08.584Z,7.88
2019-05-06T09:20:07.268Z,8.80
2019-05-06T09:30:07.698Z,7.90
2019-05-06T09:40:02.905Z,7.70
2019-05-06T09:50:13.101Z,7.95
2019-05-06T10:00:04.688Z,8.04
2019-05-06T10:10:10.886Z,8.64
2019-05-06T10:20:09.052Z,8.76
2019-05-06T10:30:12.460Z,12.18
2019-05-06T10:40:05.722Z,9.64
2019-05-06T10:50:02.531Z,9.14
2019-05-06T11:00:07.899Z,9.14
2019-05-06T11:10:21.384Z,9.56
2019-05-06T11:20:03.379Z,9.26
2019-05-06T11:30:08.488Z,9.22
2019-05-06T11:40:02.532Z,9.57
2019-05-06T11:50:07.166Z,9.95
2019-05-06T12:00:06.669Z,10.97
2019-05-06T12:10:17.088Z,9.63
2019-05-06T12:20:02.857Z,9.44
2019-05-06T12:30:08.114Z,9.18
2019-05-06T12:40:03.502Z,9.59
2019-05-06T12:50:06.767Z,9.17
2019-05-06T13:00:12.741Z,8.95
2019-05-06T13:10:05.781Z,8.62
2019-05-06T13:20:02.284Z,8.56
2019-05-06T13:30:08.280Z,8.80
2019-05-06T13:40:02.453Z,8.85
2019-05-06T13:50:08.673Z,10.19
2019-05-06T14:00:10.379Z,10.38
2019-05-06T14:10:13.125Z,10.28
2019-05-06T14:20:05.714Z,10.69
2019-05-06T14:30:04.556Z,11.53
2019-05-06T14:40:11.858Z,10.73
2019-05-06T14:50:07.050Z,10.06
2019-05-06T15:00:12.067Z,9.74
2019-05-06T15:10:18.797Z,9.56
2019-05-06T15:20:03.043Z,9.29
2019-05-06T15:30:06.726Z,8.74
2019-05-06T15:40:05.952Z,8.60
2019-05-06T15:50:12.693Z,8.55
2019-05-06T16:00:07.101Z,8.53
2019-05-06T16:10:07.082Z,8.45
2019-05-06T16:20:07.411Z,8.68
2019-05-06T16:30:12.865Z,8.91
2019-05-06T16:40:07.922Z,9.28
2019-05-06T16:50:10.348Z,8.89
2019-05-06T17:00:07.892Z,8.78
2019-05-06T17:10:06.476Z,8.54
2019-05-06T17:20:06.635Z,8.46
2019-05-06T17:30:10.213Z,8.35
2019-05-06T17:40:13.888Z,8.15
2019-05-06T17:50:02.887Z,7.93
2019-05-06T18:00:06.091Z,7.75
2019-05-06T18:10:06.766Z,7.55
2019-05-06T18:20:08.167Z,7.30
2019-05-06T18:30:15.741Z,7.17
2019-05-06T18:40:08.065Z,7.06
2019-05-06T18:50:09.433Z,6.94
2019-05-06T19:00:07.387Z,6.87
2019-05-06T19:10:03.420Z,6.65
2019-05-06T19:20:08.437Z,6.43
2019-05-06T19:30:07.200Z,6.54
2019-05-06T19:40:07.715Z,6.42
2019-05-06T19:50:06.640Z,6.41
2019-05-06T20:00:06.301Z,6.30
2019-05-06T20:10:03.332Z,6.37
2019-05-06T20:20:07.910Z,6.42
2019-05-06T20:30:03.480Z,6.39
2019-05-06T20:40:06.920Z,6.28
2019-05-06T20:50:02.539Z,6.11
2019-05-06T21:00:09.930Z,6.15
2019-05-06T21:10:08.296Z,5.98
2019-05-06T21:20:10.855Z,5.94
2019-05-06T21:30:02.727Z,5.87
2019-05-06T21:40:07.399Z,5.85
2019-05-06T21:50:08.343Z,5.98
2019-05-06T22:00:16.722Z,5.94
2019-05-06T22:10:02.251Z,6.06
2019-05-06T22:20:06.558Z,6.05
2019-05-06T22:30:06.754Z,6.03
2019-05-06T22:40:02.483Z,5.93
2019-05-06T22:50:07.272Z,5.74
2019-05-06T23:00:17.587Z,5.60
2019-05-06T23:10:08.156Z,5.52
2019-05-06T23:20:07.708Z,5.29
2019-05-06T23:30:07.351Z,5.00
2019-05-06T23:40:07.959Z,4.91
2019-05-06T23:50:03.508Z,4.82
